sensor_id;sensor_type;location;lat;lon;timestamp;pressure;altitude;pressure_sealevel;temperature;humidity
71306;BME280;59097;46.858;18.632;2023-04-03T00:01:57;100360.34;;;5.56;75.94
71306;BME280;59097;46.858;18.632;2023-04-03T00:04:25;100352.78;;;5.53;75.95
71306;BME280;59097;46.858;18.632;2023-04-03T00:06:53;100364.47;;;5.58;76.02
71306;BME280;59097;46.858;18.632;2023-04-03T00:12:49;100367.53;;;5.46;77.55
71306;BME280;59097;46.858;18.632;2023-04-03T00:15:17;100379.06;;;5.53;76.27
71306;BME280;59097;46.858;18.632;2023-04-03T00:17:45;100366.88;;;5.44;75.83
71306;BME280;59097;46.858;18.632;2023-04-03T00:24:08;100376.09;;;5.48;77.26
71306;BME280;59097;46.858;18.632;2023-04-03T00:26:36;100380.84;;;5.44;77.46
71306;BME280;59097;46.858;18.632;2023-04-03T00:29:04;100372.63;;;5.47;76.84
71306;BME280;59097;46.858;18.632;2023-04-03T00:31:32;100383.69;;;5.51;76.78
71306;BME280;59097;46.858;18.632;2023-04-03T00:34:10;100352.50;;;5.30;77.09
71306;BME280;59097;46.858;18.632;2023-04-03T00:36:38;100376.22;;;5.38;77.80
71306;BME280;59097;46.858;18.632;2023-04-03T00:39:18;100352.16;;;5.25;77.95
71306;BME280;59097;46.858;18.632;2023-04-03T00:41:52;100384.59;;;5.42;77.42
71306;BME280;59097;46.858;18.632;2023-04-03T00:48:19;100390.44;;;5.53;77.58
71306;BME280;59097;46.858;18.632;2023-04-03T00:50:48;100340.62;;;5.18;77.86
71306;BME280;59097;46.858;18.632;2023-04-03T00:53:26;100396.13;;;5.41;78.65
71306;BME280;59097;46.858;18.632;2023-04-03T00:56:01;100389.75;;;5.51;78.28
71306;BME280;59097;46.858;18.632;2023-04-03T00:58:37;100395.16;;;5.50;78.47
71306;BME280;59097;46.858;18.632;2023-04-03T01:01:11;100396.66;;;5.52;78.97
71306;BME280;59097;46.858;18.632;2023-04-03T01:03:41;100391.34;;;5.44;78.86
71306;BME280;59097;46.858;18.632;2023-04-03T01:06:11;100395.47;;;5.47;79.13
71306;BME280;59097;46.858;18.632;2023-04-03T01:08:46;100391.88;;;5.48;79.10
71306;BME280;59097;46.858;18.632;2023-04-03T01:11:16;100398.09;;;5.47;78.55
71306;BME280;59097;46.858;18.632;2023-04-03T01:13:44;100407.81;;;5.46;78.59
71306;BME280;59097;46.858;18.632;2023-04-03T01:16:13;100396.22;;;5.31;79.11
71306;BME280;59097;46.858;18.632;2023-04-03T01:18:42;100396.13;;;5.41;79.66
71306;BME280;59097;46.858;18.632;2023-04-03T01:24:36;100404.66;;;5.43;80.04
71306;BME280;59097;46.858;18.632;2023-04-03T01:27:09;100409.41;;;5.39;80.57
71306;BME280;59097;46.858;18.632;2023-04-03T01:29:38;100396.06;;;5.33;81.01
71306;BME280;59097;46.858;18.632;2023-04-03T01:32:08;100403.75;;;5.26;82.23
71306;BME280;59097;46.858;18.632;2023-04-03T01:34:35;100387.28;;;5.24;84.21
71306;BME280;59097;46.858;18.632;2023-04-03T01:37:04;100400.91;;;5.20;85.19
71306;BME280;59097;46.858;18.632;2023-04-03T01:39:32;100407.31;;;5.17;87.65
71306;BME280;59097;46.858;18.632;2023-04-03T01:42:00;100405.03;;;4.96;87.63
71306;BME280;59097;46.858;18.632;2023-04-03T01:44:29;100405.72;;;4.81;87.97
71306;BME280;59097;46.858;18.632;2023-04-03T01:46:57;100398.00;;;4.79;89.47
71306;BME280;59097;46.858;18.632;2023-04-03T01:49:26;100375.81;;;4.56;90.02
71306;BME280;59097;46.858;18.632;2023-04-03T01:52:08;100371.09;;;4.60;90.20
71306;BME280;59097;46.858;18.632;2023-04-03T01:54:37;100388.38;;;4.70;89.96
71306;BME280;59097;46.858;18.632;2023-04-03T01:57:04;100364.78;;;4.53;90.30
71306;BME280;59097;46.858;18.632;2023-04-03T01:59:33;100406.56;;;4.81;90.19
71306;BME280;59097;46.858;18.632;2023-04-03T02:02:01;100406.72;;;4.80;88.83
71306;BME280;59097;46.858;18.632;2023-04-03T02:04:30;100414.31;;;4.83;87.80
71306;BME280;59097;46.858;18.632;2023-04-03T02:07:04;100392.47;;;4.65;87.63
71306;BME280;59097;46.858;18.632;2023-04-03T02:17:00;100412.84;;;4.88;85.67
71306;BME280;59097;46.858;18.632;2023-04-03T02:19:32;100421.06;;;4.85;86.97
71306;BME280;59097;46.858;18.632;2023-04-03T02:22:02;100418.25;;;4.87;86.81
71306;BME280;59097;46.858;18.632;2023-04-03T02:24:30;100388.38;;;4.70;86.50
71306;BME280;59097;46.858;18.632;2023-04-03T02:26:59;100415.47;;;4.88;86.65
71306;BME280;59097;46.858;18.632;2023-04-03T02:29:27;100417.97;;;4.90;86.22
71306;BME280;59097;46.858;18.632;2023-04-03T02:31:55;100393.66;;;4.70;86.20
71306;BME280;59097;46.858;18.632;2023-04-03T02:34:24;100409.03;;;4.83;86.35
71306;BME280;59097;46.858;18.632;2023-04-03T02:36:53;100427.19;;;4.94;84.89
71306;BME280;59097;46.858;18.632;2023-04-03T02:39:21;100427.03;;;4.95;85.03
71306;BME280;59097;46.858;18.632;2023-04-03T02:41:49;100406.03;;;4.78;84.78
71306;BME280;59097;46.858;18.632;2023-04-03T02:44:18;100425.84;;;4.90;85.02
71306;BME280;59097;46.858;18.632;2023-04-03T02:46:46;100419.63;;;4.73;86.23
71306;BME280;59097;46.858;18.632;2023-04-03T02:49:14;100435.22;;;4.92;85.39
71306;BME280;59097;46.858;18.632;2023-04-03T02:51:43;100424.78;;;5.00;85.82
71306;BME280;59097;46.858;18.632;2023-04-03T02:54:11;100428.22;;;5.01;85.14
71306;BME280;59097;46.858;18.632;2023-04-03T02:56:41;100425.22;;;4.96;83.84
71306;BME280;59097;46.858;18.632;2023-04-03T02:59:09;100424.41;;;4.95;85.11
71306;BME280;59097;46.858;18.632;2023-04-03T03:01:37;100368.50;;;4.68;84.27
71306;BME280;59097;46.858;18.632;2023-04-03T03:04:06;100426.06;;;4.96;84.43
71306;BME280;59097;46.858;18.632;2023-04-03T03:06:33;100420.22;;;4.85;84.71
71306;BME280;59097;46.858;18.632;2023-04-03T03:09:02;100412.34;;;4.85;83.99
71306;BME280;59097;46.858;18.632;2023-04-03T03:11:31;100423.50;;;4.87;85.43
71306;BME280;59097;46.858;18.632;2023-04-03T03:13:59;100429.87;;;5.02;86.04
71306;BME280;59097;46.858;18.632;2023-04-03T03:16:27;100431.59;;;4.93;85.25
71306;BME280;59097;46.858;18.632;2023-04-03T03:18:56;100411.81;;;4.81;84.23
71306;BME280;59097;46.858;18.632;2023-04-03T03:21:26;100434.31;;;4.84;85.85
71306;BME280;59097;46.858;18.632;2023-04-03T03:23:54;100426.69;;;4.90;85.12
71306;BME280;59097;46.858;18.632;2023-04-03T03:26:22;100433.87;;;4.88;84.92
71306;BME280;59097;46.858;18.632;2023-04-03T03:28:51;100432.81;;;4.81;84.15
71306;BME280;59097;46.858;18.632;2023-04-03T03:31:20;100420.97;;;4.77;84.87
71306;BME280;59097;46.858;18.632;2023-04-03T03:33:49;100433.87;;;4.88;85.77
71306;BME280;59097;46.858;18.632;2023-04-03T03:36:17;100399.25;;;4.50;85.74
71306;BME280;59097;46.858;18.632;2023-04-03T03:38:45;100417.97;;;4.72;85.24
71306;BME280;59097;46.858;18.632;2023-04-03T03:41:13;100422.53;;;4.70;86.13
71306;BME280;59097;46.858;18.632;2023-04-03T03:43:42;100383.25;;;4.43;85.39
71306;BME280;59097;46.858;18.632;2023-04-03T03:49:07;100439.97;;;4.54;87.49
71306;BME280;59097;46.858;18.632;2023-04-03T03:51:35;100430.81;;;4.58;86.84
71306;BME280;59097;46.858;18.632;2023-04-03T04:01:44;100445.31;;;4.62;86.30
71306;BME280;59097;46.858;18.632;2023-04-03T04:04:13;100403.50;;;4.33;87.86
71306;BME280;59097;46.858;18.632;2023-04-03T04:06:41;100412.41;;;4.40;87.46
71306;BME280;59097;46.858;18.632;2023-04-03T04:09:09;100447.69;;;4.55;87.23
71306;BME280;59097;46.858;18.632;2023-04-03T04:11:42;100428.72;;;4.43;88.30
71306;BME280;59097;46.858;18.632;2023-04-03T04:14:11;100407.16;;;4.22;88.11
71306;BME280;59097;46.858;18.632;2023-04-03T04:16:41;100431.34;;;4.43;86.62
71306;BME280;59097;46.858;18.632;2023-04-03T04:19:10;100414.53;;;4.36;86.55
71306;BME280;59097;46.858;18.632;2023-04-03T04:21:39;100438.16;;;4.54;86.52
71306;BME280;59097;46.858;18.632;2023-04-03T04:24:08;100420.97;;;4.42;86.52
71306;BME280;59097;46.858;18.632;2023-04-03T04:26:37;100437.72;;;4.41;86.25
71306;BME280;59097;46.858;18.632;2023-04-03T04:29:05;100435.62;;;4.44;86.35
71306;BME280;59097;46.858;18.632;2023-04-03T04:31:33;100394.41;;;4.10;85.47
71306;BME280;59097;46.858;18.632;2023-04-03T04:34:02;100428.16;;;4.22;86.01
71306;BME280;59097;46.858;18.632;2023-04-03T04:36:30;100444.28;;;4.27;86.76
71306;BME280;59097;46.858;18.632;2023-04-03T04:38:58;100446.25;;;4.25;86.02
71306;BME280;59097;46.858;18.632;2023-04-03T04:41:27;100441.94;;;4.24;85.75
71306;BME280;59097;46.858;18.632;2023-04-03T04:43:55;100443.06;;;4.22;85.28
71306;BME280;59097;46.858;18.632;2023-04-03T04:46:24;100438.53;;;4.24;86.11
71306;BME280;59097;46.858;18.632;2023-04-03T04:48:52;100439.66;;;4.21;86.39
71306;BME280;59097;46.858;18.632;2023-04-03T04:51:21;100450.16;;;4.21;85.51
71306;BME280;59097;46.858;18.632;2023-04-03T04:53:49;100445.28;;;4.26;85.96
71306;BME280;59097;46.858;18.632;2023-04-03T04:56:18;100406.00;;;4.07;85.39
71306;BME280;59097;46.858;18.632;2023-04-03T04:58:47;100429.50;;;4.09;86.63
71306;BME280;59097;46.858;18.632;2023-04-03T05:01:15;100409.09;;;4.03;85.95
71306;BME280;59097;46.858;18.632;2023-04-03T05:03:44;100446.16;;;4.35;85.75
71306;BME280;59097;46.858;18.632;2023-04-03T05:06:12;100458.09;;;4.29;85.32
71306;BME280;59097;46.858;18.632;2023-04-03T05:08:40;100434.97;;;4.15;85.32
71306;BME280;59097;46.858;18.632;2023-04-03T05:11:08;100452.06;;;4.19;85.29
71306;BME280;59097;46.858;18.632;2023-04-03T05:13:37;100459.38;;;4.25;85.45
71306;BME280;59097;46.858;18.632;2023-04-03T05:16:06;100465.97;;;4.29;86.49
71306;BME280;59097;46.858;18.632;2023-04-03T05:18:34;100456.22;;;4.39;85.14
71306;BME280;59097;46.858;18.632;2023-04-03T05:21:04;100466.50;;;4.33;85.97
71306;BME280;59097;46.858;18.632;2023-04-03T05:23:32;100474.91;;;4.36;84.40
71306;BME280;59097;46.858;18.632;2023-04-03T05:26:01;100463.87;;;4.33;84.26
71306;BME280;59097;46.858;18.632;2023-04-03T05:32:16;100474.91;;;4.36;84.64
71306;BME280;59097;46.858;18.632;2023-04-03T05:34:46;100484.81;;;4.60;84.74
71306;BME280;59097;46.858;18.632;2023-04-03T05:37:18;100473.94;;;4.73;84.75
71306;BME280;59097;46.858;18.632;2023-04-03T05:39:53;100477.66;;;4.62;84.77
71306;BME280;59097;46.858;18.632;2023-04-03T05:42:22;100486.88;;;4.66;84.48
71306;BME280;59097;46.858;18.632;2023-04-03T05:44:50;100487.63;;;4.76;83.46
71306;BME280;59097;46.858;18.632;2023-04-03T05:47:43;100480.72;;;4.93;83.33
71306;BME280;59097;46.858;18.632;2023-04-03T05:50:15;100471.56;;;4.62;83.45
71306;BME280;59097;46.858;18.632;2023-04-03T05:52:49;100483.12;;;4.86;81.34
71306;BME280;59097;46.858;18.632;2023-04-03T05:55:22;100491.16;;;4.85;81.11
71306;BME280;59097;46.858;18.632;2023-04-03T05:58:00;100494.53;;;4.77;82.38
71306;BME280;59097;46.858;18.632;2023-04-03T06:00:28;100493.03;;;4.92;82.10
71306;BME280;59097;46.858;18.632;2023-04-03T06:02:58;100490.72;;;4.89;82.97
71306;BME280;59097;46.858;18.632;2023-04-03T06:05:28;100483.12;;;4.86;81.12
71306;BME280;59097;46.858;18.632;2023-04-03T06:07:56;100498.78;;;4.96;81.30
71306;BME280;59097;46.858;18.632;2023-04-03T06:10:27;100496.62;;;4.91;80.55
71306;BME280;59097;46.858;18.632;2023-04-03T06:13:00;100489.75;;;4.90;81.05
71306;BME280;59097;46.858;18.632;2023-04-03T06:15:28;100505.50;;;4.90;80.78
71306;BME280;59097;46.858;18.632;2023-04-03T06:18:01;100505.88;;;4.95;81.29
71306;BME280;59097;46.858;18.632;2023-04-03T06:20:35;100505.50;;;4.90;81.94
71306;BME280;59097;46.858;18.632;2023-04-03T06:23:04;100505.69;;;5.15;81.06
71306;BME280;59097;46.858;18.632;2023-04-03T06:25:35;100449.56;;;4.98;80.33
71306;BME280;59097;46.858;18.632;2023-04-03T06:28:03;100510.72;;;5.26;79.73
71306;BME280;59097;46.858;18.632;2023-04-03T06:30:31;100506.13;;;5.28;79.82
71306;BME280;59097;46.858;18.632;2023-04-03T06:33:00;100517.00;;;5.50;77.89
71306;BME280;59097;46.858;18.632;2023-04-03T06:35:29;100478.59;;;5.40;79.15
71306;BME280;59097;46.858;18.632;2023-04-03T06:38:00;100525.91;;;5.83;77.59
71306;BME280;59097;46.858;18.632;2023-04-03T06:40:29;100496.56;;;5.70;78.34
71306;BME280;59097;46.858;18.632;2023-04-03T06:42:59;100502.81;;;5.69;75.69
71306;BME280;59097;46.858;18.632;2023-04-03T06:45:27;100526.75;;;6.09;76.20
71306;BME280;59097;46.858;18.632;2023-04-03T06:47:56;100519.19;;;6.14;74.84
71306;BME280;59097;46.858;18.632;2023-04-03T06:50:24;100515.69;;;6.06;75.28
71306;BME280;59097;46.858;18.632;2023-04-03T06:52:53;100522.78;;;6.13;74.91
71306;BME280;59097;46.858;18.632;2023-04-03T06:55:22;100513.53;;;6.35;75.24
71306;BME280;59097;46.858;18.632;2023-04-03T06:57:50;100530.91;;;6.70;73.72
71306;BME280;59097;46.858;18.632;2023-04-03T07:00:19;100525.97;;;6.75;73.74
71306;BME280;59097;46.858;18.632;2023-04-03T07:02:48;100516.91;;;6.61;72.69
71306;BME280;59097;46.858;18.632;2023-04-03T07:16:22;100525.53;;;7.44;71.82
71306;BME280;59097;46.858;18.632;2023-04-03T07:18:53;100515.47;;;7.55;70.33
71306;BME280;59097;46.858;18.632;2023-04-03T07:21:22;100516.78;;;7.59;69.80
71306;BME280;59097;46.858;18.632;2023-04-03T07:23:51;100518.63;;;7.51;68.06
71306;BME280;59097;46.858;18.632;2023-04-03T07:33:19;100529.28;;;7.82;67.93
71306;BME280;59097;46.858;18.632;2023-04-03T07:35:51;100483.34;;;7.99;67.03
71306;BME280;59097;46.858;18.632;2023-04-03T07:38:20;100516.69;;;8.77;63.72
71306;BME280;59097;46.858;18.632;2023-04-03T07:40:50;100536.69;;;8.41;63.68
71306;BME280;59097;46.858;18.632;2023-04-03T07:43:20;100501.63;;;8.08;65.17
71306;BME280;59097;46.858;18.632;2023-04-03T07:45:49;100529.94;;;8.39;66.18
71306;BME280;59097;46.858;18.632;2023-04-03T07:48:20;100515.91;;;8.38;64.90
71306;BME280;59097;46.858;18.632;2023-04-03T07:50:49;100520.56;;;8.28;64.35
71306;BME280;59097;46.858;18.632;2023-04-03T07:53:18;100515.31;;;8.20;63.62
71306;BME280;59097;46.858;18.632;2023-04-03T07:55:48;100514.66;;;8.57;64.85
71306;BME280;59097;46.858;18.632;2023-04-03T07:58:18;100519.03;;;8.42;62.02
71306;BME280;59097;46.858;18.632;2023-04-03T08:00:56;100517.25;;;8.65;62.90
71306;BME280;59097;46.858;18.632;2023-04-03T08:04:26;100519.34;;;8.77;62.92
71306;BME280;59097;46.858;18.632;2023-04-03T08:06:55;100511.59;;;8.76;62.34
71306;BME280;59097;46.858;18.632;2023-04-03T08:09:23;100522.63;;;9.02;59.10
71306;BME280;59097;46.858;18.632;2023-04-03T08:11:51;100532.47;;;9.16;60.87
71306;BME280;59097;46.858;18.632;2023-04-03T08:14:21;100531.56;;;9.24;59.87
71306;BME280;59097;46.858;18.632;2023-04-03T08:16:49;100524.50;;;9.39;59.20
71306;BME280;59097;46.858;18.632;2023-04-03T08:19:17;100533.16;;;9.70;58.72
71306;BME280;59097;46.858;18.632;2023-04-03T08:22:06;100524.22;;;10.00;58.26
71306;BME280;59097;46.858;18.632;2023-04-03T08:24:34;100536.59;;;10.23;55.16
71306;BME280;59097;46.858;18.632;2023-04-03T08:27:04;100531.81;;;10.33;56.97
71306;BME280;59097;46.858;18.632;2023-04-03T08:29:35;100532.41;;;10.14;56.49
71306;BME280;59097;46.858;18.632;2023-04-03T08:32:06;100542.00;;;10.29;56.10
71306;BME280;59097;46.858;18.632;2023-04-03T08:34:44;100528.19;;;10.34;55.63
71306;BME280;59097;46.858;18.632;2023-04-03T08:37:13;100522.97;;;10.76;54.30
71306;BME280;59097;46.858;18.632;2023-04-03T08:39:42;100515.94;;;13.30;48.27
71306;BME280;59097;46.858;18.632;2023-04-03T08:45:16;100540.59;;;14.92;45.62
71306;BME280;59097;46.858;18.632;2023-04-03T08:48:08;100543.94;;;14.11;44.30
71306;BME280;59097;46.858;18.632;2023-04-03T08:50:44;100544.19;;;13.24;45.26
71306;BME280;59097;46.858;18.632;2023-04-03T08:53:19;100527.50;;;14.84;44.51
71306;BME280;59097;46.858;18.632;2023-04-03T08:55:50;100446.03;;;13.01;44.58
71306;BME280;59097;46.858;18.632;2023-04-03T08:58:25;100520.72;;;12.80;46.69
71306;BME280;59097;46.858;18.632;2023-04-03T09:01:00;100536.00;;;14.68;46.04
71306;BME280;59097;46.858;18.632;2023-04-03T09:03:35;100528.44;;;12.55;45.91
71306;BME280;59097;46.858;18.632;2023-04-03T09:06:29;100541.13;;;11.36;49.26
71306;BME280;59097;46.858;18.632;2023-04-03T09:22:57;100547.44;;;11.56;50.31
71306;BME280;59097;46.858;18.632;2023-04-03T09:25:29;100539.13;;;10.81;54.05
71306;BME280;59097;46.858;18.632;2023-04-03T09:28:02;100551.94;;;11.13;53.94
71306;BME280;59097;46.858;18.632;2023-04-03T09:30:30;100558.47;;;10.75;55.15
71306;BME280;59097;46.858;18.632;2023-04-03T09:33:08;100552.72;;;10.71;53.71
71306;BME280;59097;46.858;18.632;2023-04-03T09:36:12;100546.03;;;12.16;51.57
71306;BME280;59097;46.858;18.632;2023-04-03T09:38:40;100547.88;;;11.60;48.89
71306;BME280;59097;46.858;18.632;2023-04-03T09:41:17;100546.19;;;11.52;49.70
71306;BME280;59097;46.858;18.632;2023-04-03T09:43:54;100535.94;;;11.07;52.49
71306;BME280;59097;46.858;18.632;2023-04-03T09:46:33;100406.91;;;10.06;52.58
71306;BME280;59097;46.858;18.632;2023-04-03T09:49:04;100530.44;;;10.87;53.16
71306;BME280;59097;46.858;18.632;2023-04-03T09:51:42;100561.38;;;10.80;53.86
71306;BME280;59097;46.858;18.632;2023-04-03T09:54:35;100558.28;;;10.77;53.49
71306;BME280;59097;46.858;18.632;2023-04-03T09:57:11;100560.50;;;10.58;52.89
71306;BME280;59097;46.858;18.632;2023-04-03T09:59:58;100521.03;;;10.49;53.96
71306;BME280;59097;46.858;18.632;2023-04-03T10:02:40;100545.87;;;10.48;53.17
71306;BME280;59097;46.858;18.632;2023-04-03T10:10:45;100559.34;;;10.46;52.06
71306;BME280;59097;46.858;18.632;2023-04-03T10:13:19;100551.97;;;10.78;52.03
71306;BME280;59097;46.858;18.632;2023-04-03T10:16:49;100549.78;;;11.02;51.80
71306;BME280;59097;46.858;18.632;2023-04-03T10:19:57;100555.78;;;10.90;52.00
71306;BME280;59097;46.858;18.632;2023-04-03T10:22:40;100537.12;;;10.83;51.68
71306;BME280;59097;46.858;18.632;2023-04-03T10:28:02;100548.34;;;10.64;52.14
71306;BME280;59097;46.858;18.632;2023-04-03T10:30:53;100556.56;;;10.10;52.37
71306;BME280;59097;46.858;18.632;2023-04-03T10:36:25;100554.56;;;9.83;52.95
71306;BME280;59097;46.858;18.632;2023-04-03T10:46:04;100540.75;;;9.88;53.11
71306;BME280;59097;46.858;18.632;2023-04-03T10:48:47;100506.50;;;9.86;53.64
71306;BME280;59097;46.858;18.632;2023-04-03T11:01:27;100531.47;;;10.21;52.72
71306;BME280;59097;46.858;18.632;2023-04-03T11:04:00;100500.47;;;9.92;51.90
71306;BME280;59097;46.858;18.632;2023-04-03T11:06:36;100524.34;;;10.22;53.53
71306;BME280;59097;46.858;18.632;2023-04-03T11:09:27;100521.87;;;10.20;51.59
71306;BME280;59097;46.858;18.632;2023-04-03T11:15:03;100514.28;;;10.32;52.50
71306;BME280;59097;46.858;18.632;2023-04-03T11:17:41;100513.62;;;10.44;50.63
71306;BME280;59097;46.858;18.632;2023-04-03T11:20:31;100517.91;;;10.45;50.91
71306;BME280;59097;46.858;18.632;2023-04-03T11:23:19;100514.81;;;10.42;50.47
71306;BME280;59097;46.858;18.632;2023-04-03T11:25:51;100506.19;;;10.54;50.26
71306;BME280;59097;46.858;18.632;2023-04-03T11:28:22;100505.31;;;10.83;49.39
71306;BME280;59097;46.858;18.632;2023-04-03T11:31:14;100509.31;;;10.79;49.91
71306;BME280;59097;46.858;18.632;2023-04-03T11:34:35;100509.25;;;10.94;49.62
71306;BME280;59097;46.858;18.632;2023-04-03T11:40:29;100509.47;;;10.92;48.62
71306;BME280;59097;46.858;18.632;2023-04-03T11:57:43;100483.69;;;11.28;48.50
71306;BME280;59097;46.858;18.632;2023-04-03T12:16:22;100469.91;;;10.40;51.63
71306;BME280;59097;46.858;18.632;2023-04-03T12:41:11;100463.66;;;10.62;51.33
71306;BME280;59097;46.858;18.632;2023-04-03T12:47:35;100463.34;;;10.36;48.14
71306;BME280;59097;46.858;18.632;2023-04-03T12:50:40;100462.72;;;10.20;48.80
71306;BME280;59097;46.858;18.632;2023-04-03T12:53:17;100429.56;;;10.24;47.99
71306;BME280;59097;46.858;18.632;2023-04-03T13:02:49;100429.63;;;10.45;50.23
71306;BME280;59097;46.858;18.632;2023-04-03T13:05:19;100408.41;;;10.45;49.86
71306;BME280;59097;46.858;18.632;2023-04-03T13:08:05;100404.53;;;10.68;48.81
71306;BME280;59097;46.858;18.632;2023-04-03T13:11:04;100401.59;;;10.78;47.39
71306;BME280;59097;46.858;18.632;2023-04-03T13:14:02;100359.16;;;10.36;48.59
71306;BME280;59097;46.858;18.632;2023-04-03T13:17:14;100425.97;;;10.88;47.87
71306;BME280;59097;46.858;18.632;2023-04-03T13:19:43;100418.97;;;10.81;48.23
71306;BME280;59097;46.858;18.632;2023-04-03T13:22:26;100419.81;;;10.45;50.25
71306;BME280;59097;46.858;18.632;2023-04-03T13:24:58;100410.28;;;10.72;49.40
71306;BME280;59097;46.858;18.632;2023-04-03T13:27:31;100421.28;;;10.69;49.89
71306;BME280;59097;46.858;18.632;2023-04-03T13:30:04;100410.22;;;10.65;47.95
71306;BME280;59097;46.858;18.632;2023-04-03T13:32:39;100417.06;;;10.96;47.49
71306;BME280;59097;46.858;18.632;2023-04-03T13:35:45;100409.78;;;10.83;46.63
71306;BME280;59097;46.858;18.632;2023-04-03T13:40:57;100409.16;;;10.39;48.34
71306;BME280;59097;46.858;18.632;2023-04-03T13:43:31;100379.84;;;10.26;47.70
71306;BME280;59097;46.858;18.632;2023-04-03T13:46:05;100420.63;;;10.46;46.80
71306;BME280;59097;46.858;18.632;2023-04-03T13:48:59;100408.78;;;10.42;48.00
71306;BME280;59097;46.858;18.632;2023-04-03T13:51:45;100412.28;;;10.28;47.42
71306;BME280;59097;46.858;18.632;2023-04-03T13:54:38;100417.50;;;10.57;47.45
71306;BME280;59097;46.858;18.632;2023-04-03T13:57:15;100417.50;;;10.78;47.85
71306;BME280;59097;46.858;18.632;2023-04-03T13:59:44;100419.09;;;10.72;47.01
71306;BME280;59097;46.858;18.632;2023-04-03T14:02:28;100411.50;;;10.69;47.64
71306;BME280;59097;46.858;18.632;2023-04-03T14:05:00;100409.91;;;10.75;47.68
71306;BME280;59097;46.858;18.632;2023-04-03T14:07:32;100406.13;;;10.42;47.92
71306;BME280;59097;46.858;18.632;2023-04-03T14:10:00;100410.75;;;10.19;49.82
71306;BME280;59097;46.858;18.632;2023-04-03T14:12:35;100413.56;;;10.32;50.12
71306;BME280;59097;46.858;18.632;2023-04-03T14:15:22;100408.00;;;10.27;48.44
71306;BME280;59097;46.858;18.632;2023-04-03T14:17:52;100419.69;;;10.32;48.46
71306;BME280;59097;46.858;18.632;2023-04-03T14:20:24;100408.94;;;10.19;48.12
71306;BME280;59097;46.858;18.632;2023-04-03T14:22:54;100387.97;;;10.09;49.44
71306;BME280;59097;46.858;18.632;2023-04-03T14:25:22;100407.13;;;9.90;49.09
71306;BME280;59097;46.858;18.632;2023-04-03T14:27:54;100408.47;;;9.86;48.57
71306;BME280;59097;46.858;18.632;2023-04-03T14:30:33;100394.00;;;9.68;48.20
71306;BME280;59097;46.858;18.632;2023-04-03T14:33:01;100399.00;;;9.48;49.88
71306;BME280;59097;46.858;18.632;2023-04-03T14:35:30;100398.81;;;9.64;48.59
71306;BME280;59097;46.858;18.632;2023-04-03T14:37:58;100407.41;;;9.66;49.61
71306;BME280;59097;46.858;18.632;2023-04-03T14:40:26;100399.63;;;9.35;48.58
71306;BME280;59097;46.858;18.632;2023-04-03T14:42:55;100406.75;;;9.64;48.52
71306;BME280;59097;46.858;18.632;2023-04-03T14:45:24;100410.50;;;9.40;48.87
71306;BME280;59097;46.858;18.632;2023-04-03T14:47:55;100419.25;;;9.26;48.83
71306;BME280;59097;46.858;18.632;2023-04-03T14:50:26;100414.59;;;9.28;48.29
71306;BME280;59097;46.858;18.632;2023-04-03T14:52:58;100424.06;;;9.08;49.65
71306;BME280;59097;46.858;18.632;2023-04-03T14:55:27;100414.06;;;8.96;50.21
71306;BME280;59097;46.858;18.632;2023-04-03T14:57:55;100424.03;;;8.94;51.45
71306;BME280;59097;46.858;18.632;2023-04-03T15:00:23;100404.97;;;8.98;51.27
71306;BME280;59097;46.858;18.632;2023-04-03T15:02:53;100422.16;;;9.17;50.41
71306;BME280;59097;46.858;18.632;2023-04-03T15:05:25;100425.84;;;8.93;49.59
71306;BME280;59097;46.858;18.632;2023-04-03T15:07:55;100424.31;;;8.99;49.99
71306;BME280;59097;46.858;18.632;2023-04-03T15:10:27;100430.34;;;9.07;50.79
71306;BME280;59097;46.858;18.632;2023-04-03T15:12:59;100426.59;;;9.02;49.91
71306;BME280;59097;46.858;18.632;2023-04-03T15:15:29;100421.19;;;8.95;49.70
71306;BME280;59097;46.858;18.632;2023-04-03T15:17:58;100366.28;;;8.60;50.58
71306;BME280;59097;46.858;18.632;2023-04-03T15:20:28;100399.53;;;8.77;50.02
71306;BME280;59097;46.858;18.632;2023-04-03T15:23:00;100404.19;;;8.90;51.29
71306;BME280;59097;46.858;18.632;2023-04-03T15:25:32;100412.31;;;8.88;50.90
71306;BME280;59097;46.858;18.632;2023-04-03T15:28:01;100403.19;;;8.76;51.11
71306;BME280;59097;46.858;18.632;2023-04-03T15:30:30;100382.03;;;8.53;50.06
71306;BME280;59097;46.858;18.632;2023-04-03T15:32:58;100401.94;;;8.64;50.05
71306;BME280;59097;46.858;18.632;2023-04-03T15:35:26;100373.09;;;8.32;49.09
71306;BME280;59097;46.858;18.632;2023-04-03T15:38:03;100410.53;;;8.66;48.20
71306;BME280;59097;46.858;18.632;2023-04-03T15:40:31;100414.78;;;8.67;48.79
71306;BME280;59097;46.858;18.632;2023-04-03T15:42:59;100379.50;;;8.37;47.60
71306;BME280;59097;46.858;18.632;2023-04-03T15:48:38;100426.00;;;8.46;49.13
71306;BME280;59097;46.858;18.632;2023-04-03T15:51:06;100438.06;;;8.49;47.70
71306;BME280;59097;46.858;18.632;2023-04-03T16:01:13;100431.34;;;8.38;48.46
71306;BME280;59097;46.858;18.632;2023-04-03T16:03:43;100433.22;;;8.30;49.04
71306;BME280;59097;46.858;18.632;2023-04-03T16:06:14;100424.84;;;8.10;49.88
71306;BME280;59097;46.858;18.632;2023-04-03T16:08:43;100419.84;;;8.23;48.46
71306;BME280;59097;46.858;18.632;2023-04-03T16:11:11;100430.97;;;8.10;47.73
71306;BME280;59097;46.858;18.632;2023-04-03T16:13:39;100432.78;;;8.10;47.48
71306;BME280;59097;46.858;18.632;2023-04-03T16:16:09;100431.28;;;8.15;48.86
71306;BME280;59097;46.858;18.632;2023-04-03T16:18:37;100438.25;;;8.08;48.27
71306;BME280;59097;46.858;18.632;2023-04-03T16:21:06;100434.16;;;7.98;48.54